Time;durP1;ratioP1;P1;durP2;ratioP2;P2;SDS_P1;SDS_P2;PMS_P1;PMS_P2;Temp;Humidity;BMP_temperature;BMP_pressure;BME280_temperature;BME280_humidity;BME280_pressure;Samples;Min_cycle;Max_cycle;Signal;HPM_P1;HPM_P2
2022/09/25 00:01:09;;;;;;;5.63;5.20;;;;;;;12.86;66.64;99869.06;4994565;28;20286;-60
2022/09/25 00:03:36;;;;;;;5.30;4.90;;;;;;;12.88;66.55;99863.56;4994510;28;20666;-60
2022/09/25 00:06:05;;;;;;;7.73;4.27;;;;;;;12.92;65.88;99870.94;4994786;28;20198;-60
2022/09/25 00:08:33;;;;;;;7.73;5.23;;;;;;;12.96;66.12;99856.19;4994519;28;20261;-60
2022/09/25 00:10:59;;;;;;;5.23;4.93;;;;;;;13.01;66.14;99864.44;4994323;28;20195;-60
2022/09/25 00:13:26;;;;;;;5.63;5.00;;;;;;;13.03;66.38;99864.25;4994355;28;20261;-60
2022/09/25 00:15:57;;;;;;;9.27;5.07;;;;;;;13.07;66.04;99868.94;4994821;28;20201;-60
2022/09/25 00:21:06;;;;;;;5.43;4.93;;;;;;;13.08;66.18;99870.63;4980961;28;20218;-60
2022/09/25 00:23:33;;;;;;;5.27;4.87;;;;;;;13.12;66.15;99871.84;4974740;28;20194;-60
2022/09/25 00:26:00;;;;;;;5.33;4.97;;;;;;;13.13;65.76;99869.97;4993421;28;20374;-60
2022/09/25 00:28:28;;;;;;;5.87;4.70;;;;;;;13.15;65.62;99866.09;4994106;28;20697;-59
2022/09/25 00:30:56;;;;;;;6.10;5.50;;;;;;;13.10;65.93;99863.22;4993087;28;20201;-60
2022/09/25 00:33:23;;;;;;;5.93;5.33;;;;;;;13.09;65.75;99858.91;4993929;28;20737;-60
2022/09/25 00:35:50;;;;;;;5.90;5.33;;;;;;;13.08;66.08;99857.28;4994070;28;20249;-60
2022/09/25 00:38:17;;;;;;;5.10;4.63;;;;;;;12.96;66.88;99856.19;4993846;28;20706;-60
2022/09/25 00:40:44;;;;;;;5.23;4.93;;;;;;;12.97;66.58;99857.00;4993755;28;20198;-60
2022/09/25 00:43:13;;;;;;;5.87;5.57;;;;;;;12.92;66.38;99851.47;4994126;28;20194;-59
2022/09/25 00:45:41;;;;;;;7.90;5.63;;;;;;;12.88;66.63;99852.88;4994040;28;20198;-60
2022/09/25 00:48:14;;;;;;;6.03;5.73;;;;;;;12.88;66.69;99853.72;5004992;28;20190;-60
2022/09/25 00:50:49;;;;;;;5.60;5.20;;;;;;;12.87;66.82;99857.38;5013233;28;20190;-60
2022/09/25 00:53:20;;;;;;;6.33;5.83;;;;;;;12.87;66.54;99846.72;5013516;28;20704;-60
2022/09/25 00:55:48;;;;;;;5.70;5.30;;;;;;;12.85;66.54;99848.78;5013516;28;20333;-60
2022/09/25 00:58:19;;;;;;;6.30;5.90;;;;;;;12.85;66.45;99845.28;5013356;28;20205;-62
2022/09/25 01:00:46;;;;;;;6.43;6.03;;;;;;;12.89;66.67;99849.19;5013050;28;20221;-60
2022/09/25 01:03:16;;;;;;;8.23;6.57;;;;;;;12.83;66.68;99839.34;5013327;28;20193;-60
2022/09/25 01:05:45;;;;;;;6.40;5.83;;;;;;;12.88;66.67;99842.22;5012902;28;20197;-61
2022/09/25 01:08:15;;;;;;;6.30;5.70;;;;;;;12.84;66.74;99841.81;5012949;28;20194;-60
2022/09/25 01:10:42;;;;;;;5.83;5.53;;;;;;;12.80;67.05;99845.91;5012841;28;20197;-61
2022/09/25 01:13:10;;;;;;;6.67;6.17;;;;;;;12.77;67.61;99845.47;5012855;28;20200;-60
2022/09/25 01:15:45;;;;;;;5.90;5.50;;;;;;;12.72;67.68;99846.09;5012806;28;20190;-60
2022/09/25 01:18:23;;;;;;;6.37;5.73;;;;;;;12.75;67.21;99836.88;5013604;28;20572;-61
2022/09/25 01:21:04;;;;;;;6.93;6.23;;;;;;;12.72;66.93;99848.75;5001413;28;20191;-60
2022/09/25 01:23:51;;;;;;;6.97;6.37;;;;;;;12.70;66.93;99856.09;4993158;28;20189;-60
2022/09/25 01:26:36;;;;;;;6.93;6.43;;;;;;;12.58;67.61;99840.91;4973864;28;20249;-60
2022/09/25 01:29:09;;;;;;;6.30;5.87;;;;;;;12.53;67.49;99832.72;4974012;28;20198;-60
2022/09/25 01:31:42;;;;;;;6.57;6.00;;;;;;;12.51;68.04;99835.56;4973500;28;20191;-60
2022/09/25 01:34:16;;;;;;;6.30;5.70;;;;;;;12.48;68.19;99835.97;4973878;28;20194;-59
2022/09/25 01:36:48;;;;;;;6.27;5.87;;;;;;;12.47;68.08;99844.16;4973968;28;20214;-60
2022/09/25 01:39:21;;;;;;;6.47;5.97;;;;;;;12.41;68.00;99835.09;4973981;28;20300;-60
2022/09/25 01:41:55;;;;;;;6.47;6.07;;;;;;;12.46;67.59;99837.19;4973167;28;20639;-60
2022/09/25 01:44:28;;;;;;;5.83;5.53;;;;;;;12.40;67.78;99832.63;4973816;28;20245;-60
2022/09/25 01:46:59;;;;;;;6.73;6.10;;;;;;;12.36;67.76;99842.88;4973852;28;20278;-60
2022/09/25 01:49:29;;;;;;;6.30;5.90;;;;;;;12.32;68.33;99832.81;4974499;28;20198;-60
2022/09/25 01:51:59;;;;;;;7.43;6.73;;;;;;;12.31;68.64;99852.47;4973642;28;20296;-61
2022/09/25 01:54:31;;;;;;;6.83;6.37;;;;;;;12.29;68.69;99847.34;4973274;28;20670;-61
2022/09/25 01:57:02;;;;;;;6.53;6.00;;;;;;;12.27;69.14;99849.41;4973393;28;20626;-61
2022/09/25 01:59:36;;;;;;;6.67;6.13;;;;;;;12.25;69.11;99837.31;4973741;28;20291;-60
2022/09/25 02:02:08;;;;;;;5.57;5.27;;;;;;;12.26;68.95;99847.78;4973849;28;20259;-60
2022/09/25 02:04:39;;;;;;;6.63;5.60;;;;;;;12.17;69.12;99858.78;4973184;28;20196;-60
2022/09/25 02:07:10;;;;;;;5.43;5.03;;;;;;;12.12;68.96;99851.38;4973996;28;20326;-60
2022/09/25 02:09:40;;;;;;;6.30;5.90;;;;;;;12.16;69.05;99852.63;4973202;28;20677;-59
2022/09/25 02:12:11;;;;;;;5.70;5.30;;;;;;;12.09;69.96;99850.94;4973097;28;20194;-60
2022/09/25 02:14:45;;;;;;;6.23;5.83;;;;;;;12.04;69.18;99854.19;4973713;28;20191;-60
2022/09/25 02:20:30;;;;;;;5.20;5.00;;;;;;;11.98;69.68;99855.00;4972983;28;20654;-60
2022/09/25 02:22:51;;;;;;;5.80;5.30;;;;;;;11.68;70.95;99858.88;4992501;28;20270;-59
2022/09/25 02:25:25;;;;;;;6.33;5.90;;;;;;;11.61;70.80;99863.34;4980003;28;20279;-60
2022/09/25 02:27:52;;;;;;;6.30;5.87;;;;;;;11.56;71.80;99868.38;4973010;28;20377;-60
2022/09/25 02:30:20;;;;;;;7.33;6.40;;;;;;;11.52;71.17;99864.47;4972998;28;20248;-60
2022/09/25 02:32:47;;;;;;;7.00;6.17;;;;;;;11.54;71.08;99862.44;4972759;28;20199;-60
2022/09/25 02:35:14;;;;;;;6.77;6.17;;;;;;;11.46;71.14;99862.56;4973155;28;20201;-61
2022/09/25 02:37:41;;;;;;;6.43;5.93;;;;;;;11.45;71.07;99852.94;4973123;28;20289;-60
2022/09/25 02:40:10;;;;;;;6.77;6.17;;;;;;;11.50;71.51;99860.34;4972796;28;20289;-60
2022/09/25 02:42:44;;;;;;;6.70;6.30;;;;;;;11.51;70.68;99857.47;4973185;28;20299;-60
2022/09/25 02:45:22;;;;;;;6.47;5.97;;;;;;;11.54;71.21;99851.78;4973476;28;20227;-60
2022/09/25 02:48:02;;;;;;;6.30;5.90;;;;;;;11.55;70.54;99858.75;4972766;28;20721;-60
2022/09/25 02:50:36;;;;;;;6.77;6.30;;;;;;;11.55;71.12;99853.41;4972840;28;20194;-60
2022/09/25 02:53:13;;;;;;;6.67;6.07;;;;;;;11.44;70.65;99831.84;4973096;28;20236;-59
2022/09/25 02:55:44;;;;;;;6.00;5.40;;;;;;;11.54;71.57;99845.63;4976395;28;20647;-60
2022/09/25 02:58:16;;;;;;;6.47;5.67;;;;;;;11.56;71.30;99855.06;4976342;28;20701;-60
2022/09/25 03:00:47;;;;;;;8.03;6.07;;;;;;;11.61;71.36;99858.03;4977121;28;20218;-60
2022/09/25 03:03:18;;;;;;;9.33;6.43;;;;;;;11.60;71.19;99863.50;4976187;28;20628;-60
2022/09/25 03:05:47;;;;;;;6.30;5.80;;;;;;;11.61;71.27;99859.84;4979080;28;20200;-60
2022/09/25 03:10:58;;;;;;;12.90;6.33;;;;;;;11.67;70.63;99867.88;4986305;28;20679;-60
2022/09/25 03:13:30;;;;;;;6.40;6.00;;;;;;;11.63;70.84;99871.94;4975968;28;20644;-60
2022/09/25 03:15:59;;;;;;;7.37;6.83;;;;;;;11.57;70.98;99870.03;4991079;28;20716;-60
2022/09/25 03:18:29;;;;;;;6.63;6.00;;;;;;;11.51;71.52;99877.97;4995634;28;20196;-60
2022/09/25 03:20:56;;;;;;;6.83;6.23;;;;;;;11.42;72.15;99869.28;4983429;28;20214;-60
2022/09/25 03:23:23;;;;;;;6.63;6.07;;;;;;;11.41;71.82;99865.00;4981973;28;20196;-60
2022/09/25 03:25:50;;;;;;;6.83;6.23;;;;;;;11.45;71.58;99874.22;4995289;28;20664;-60
2022/09/25 03:28:16;;;;;;;6.60;5.97;;;;;;;11.46;71.86;99864.38;4995879;28;20196;-60
2022/09/25 03:30:44;;;;;;;6.53;5.97;;;;;;;11.48;71.63;99871.19;4995162;28;20765;-60
2022/09/25 03:33:12;;;;;;;9.20;6.20;;;;;;;11.47;71.42;99861.53;4985898;28;20630;-60
2022/09/25 03:35:40;;;;;;;6.60;5.80;;;;;;;11.48;71.73;99862.38;4992946;28;20195;-60
2022/09/25 03:38:09;;;;;;;6.33;5.77;;;;;;;11.49;71.70;99862.19;4975837;28;20197;-60
2022/09/25 03:40:36;;;;;;;6.17;5.70;;;;;;;11.51;71.24;99851.38;4981614;28;20229;-60
2022/09/25 03:43:02;;;;;;;5.73;5.33;;;;;;;11.55;71.22;99847.31;4995131;28;20205;-60
2022/09/25 03:45:29;;;;;;;7.53;6.67;;;;;;;11.52;71.05;99848.50;4994965;28;20331;-60
2022/09/25 03:47:56;;;;;;;6.50;6.00;;;;;;;11.45;71.58;99841.47;4994806;28;20283;-59
2022/09/25 03:50:23;;;;;;;7.57;5.80;;;;;;;11.42;71.96;99841.84;4979350;28;20265;-59
2022/09/25 03:52:51;;;;;;;12.23;6.80;;;;;;;11.41;71.82;99841.06;4975380;28;20231;-60
2022/09/25 03:55:18;;;;;;;8.03;6.13;;;;;;;11.39;72.37;99843.06;4975321;28;20193;-60
2022/09/25 03:57:45;;;;;;;13.63;6.73;;;;;;;11.35;72.14;99857.75;4975458;28;20205;-60
2022/09/25 04:00:13;;;;;;;7.13;5.93;;;;;;;11.22;72.75;99846.22;4975664;28;20228;-60
2022/09/25 04:02:40;;;;;;;7.57;6.50;;;;;;;11.08;72.56;99851.38;4975338;28;20197;-60
2022/09/25 04:05:08;;;;;;;6.60;5.90;;;;;;;11.00;72.94;99853.38;4975070;28;20727;-60
2022/09/25 04:07:35;;;;;;;7.40;6.13;;;;;;;10.95;72.73;99855.78;5004850;28;20224;-62
2022/09/25 04:10:03;;;;;;;8.23;6.97;;;;;;;10.78;73.19;99854.34;5014220;28;20204;-59
2022/09/25 04:12:30;;;;;;;9.87;7.20;;;;;;;10.74;74.23;99859.22;5014282;28;20195;-60
2022/09/25 04:14:57;;;;;;;8.30;7.33;;;;;;;10.76;73.45;99862.53;5014192;28;20278;-60
2022/09/25 04:17:24;;;;;;;7.37;6.57;;;;;;;10.81;73.23;99859.28;5014222;28;20225;-59
2022/09/25 04:19:51;;;;;;;7.97;7.17;;;;;;;10.80;73.52;99857.66;5010572;28;20231;-60
2022/09/25 04:22:18;;;;;;;7.37;6.87;;;;;;;10.82;73.22;99852.97;4994215;28;20201;-60
2022/09/25 04:24:51;;;;;;;9.27;6.67;;;;;;;10.88;72.86;99849.56;4994075;28;20627;-60
2022/09/25 04:27:22;;;;;;;8.50;6.50;;;;;;;10.92;72.66;99850.84;4994212;28;20596;-60
2022/09/25 04:29:49;;;;;;;8.70;6.70;;;;;;;10.92;73.28;99856.16;4994060;28;20201;-60
2022/09/25 04:35:01;;;;;;;7.10;6.47;;;;;;;11.03;72.88;99866.28;4994020;28;20188;-60
2022/09/25 04:37:27;;;;;;;7.77;7.23;;;;;;;11.09;72.42;99865.50;4993912;28;20668;-60
2022/09/25 04:39:55;;;;;;;8.07;7.23;;;;;;;11.17;72.61;99853.91;4991714;28;20575;-60
2022/09/25 04:42:24;;;;;;;7.97;7.30;;;;;;;11.32;72.86;99855.50;4974701;28;20193;-60
2022/09/25 04:44:52;;;;;;;8.00;7.27;;;;;;;11.54;71.64;99857.09;4974223;28;20643;-60
2022/09/25 04:47:19;;;;;;;8.23;7.50;;;;;;;11.73;70.44;99864.47;4974254;28;20289;-60
2022/09/25 04:49:46;;;;;;;10.10;7.67;;;;;;;11.80;70.96;99875.94;4982112;28;20205;-61
2022/09/25 04:52:14;;;;;;;8.13;7.33;;;;;;;11.94;70.01;99867.03;4976877;28;20753;-61
2022/09/25 04:54:41;;;;;;;13.33;8.90;;;;;;;12.33;68.79;99882.44;4984133;28;20227;-61
2022/09/25 04:57:08;;;;;;;11.13;7.93;;;;;;;12.80;67.01;99888.56;4983973;28;20201;-60
2022/09/25 04:59:36;;;;;;;7.63;6.83;;;;;;;13.28;65.65;99887.44;4982439;28;20215;-60
2022/09/25 05:02:03;;;;;;;7.03;6.53;;;;;;;13.65;63.27;99894.88;4983757;28;20324;-61
2022/09/25 05:04:30;;;;;;;5.33;4.93;;;;;;;13.90;62.04;99898.56;4984014;28;20266;-60
2022/09/25 05:06:57;;;;;;;5.33;4.93;;;;;;;14.27;61.31;99908.59;4982705;28;20246;-60
2022/09/25 05:09:24;;;;;;;5.27;4.97;;;;;;;14.74;60.00;99916.22;4983117;28;20202;-60
2022/09/25 05:11:51;;;;;;;5.20;4.90;;;;;;;14.96;58.82;99911.41;4979691;28;20199;-60
2022/09/25 05:14:18;;;;;;;5.83;5.10;;;;;;;15.08;58.41;99921.19;4983256;28;20202;-59
2022/09/25 05:16:47;;;;;;;5.13;4.70;;;;;;;15.44;57.06;99910.69;4981919;28;20202;-60
2022/09/25 05:19:14;;;;;;;6.40;4.80;;;;;;;15.89;55.96;99925.59;4982586;28;20191;-61
2022/09/25 05:21:40;;;;;;;5.27;3.67;;;;;;;16.51;62.54;99907.66;4984510;28;20613;-63
2022/09/25 05:24:08;;;;;;;5.40;4.93;;;;;;;17.71;52.18;99943.19;4981791;28;20258;-66
2022/09/25 05:26:36;;;;;;;4.67;4.47;;;;;;;17.84;48.07;99938.44;4983784;28;20257;-66
2022/09/25 05:29:03;;;;;;;4.97;4.50;;;;;;;18.18;47.46;99950.28;4979833;28;20191;-64
2022/09/25 05:31:30;;;;;;;4.37;3.53;;;;;;;18.79;49.26;99947.91;4980573;28;20195;-65
2022/09/25 05:33:59;;;;;;;9.73;3.63;;;;;;;19.16;46.19;99949.97;4982271;28;20215;-64
2022/09/25 05:36:25;;;;;;;6.83;4.60;;;;;;;19.02;43.12;99945.13;4982145;28;20259;-65
2022/09/25 05:38:52;;;;;;;4.53;4.30;;;;;;;18.80;43.17;99942.28;4981587;28;20616;-66
2022/09/25 05:41:19;;;;;;;4.83;4.43;;;;;;;18.64;45.75;99936.81;4983293;28;20699;-65
2022/09/25 05:43:46;;;;;;;4.40;4.20;;;;;;;18.89;46.65;99938.16;4980881;28;20619;-64
2022/09/25 05:46:14;;;;;;;3.60;3.37;;;;;;;19.08;43.08;99946.88;4981713;28;20286;-64
2022/09/25 05:48:41;;;;;;;5.23;4.80;;;;;;;19.64;41.92;99963.06;4986825;28;20240;-65
2022/09/25 05:51:09;;;;;;;6.30;3.53;;;;;;;20.12;44.42;99949.84;4992803;28;20197;-65
2022/09/25 05:53:37;;;;;;;7.13;3.90;;;;;;;21.30;41.10;99948.19;4993163;28;20276;-65
2022/09/25 05:56:05;;;;;;;4.03;3.53;;;;;;;22.32;38.25;99957.78;4992464;28;20202;-67
2022/09/25 05:58:33;;;;;;;9.83;4.10;;;;;;;22.74;34.46;99945.03;4988472;28;20198;-65
2022/09/25 06:01:02;;;;;;;9.17;4.30;;;;;;;22.48;35.51;99935.16;4983110;28;20211;-71
2022/09/25 06:03:30;;;;;;;5.87;3.57;;;;;;;22.41;36.41;99928.31;4978463;28;20227;-66
2022/09/25 06:05:57;;;;;;;4.03;3.73;;;;;;;22.23;35.58;99924.16;4993016;28;20197;-68
2022/09/25 06:08:26;;;;;;;3.97;3.67;;;;;;;21.38;36.91;99906.38;5010734;28;20562;-67
2022/09/25 06:10:54;;;;;;;5.03;3.63;;;;;;;21.65;38.05;99926.91;4979870;28;20608;-68
2022/09/25 06:13:22;;;;;;;5.23;3.73;;;;;;;22.12;36.56;99929.72;4981184;28;20203;-68
2022/09/25 06:15:51;;;;;;;3.83;3.50;;;;;;;22.35;35.42;99918.53;4988682;28;20666;-66
2022/09/25 06:18:20;;;;;;;8.27;3.40;;;;;;;22.90;34.67;99925.06;4991786;28;20205;-61
2022/09/25 06:20:47;;;;;;;4.03;3.77;;;;;;;23.23;32.87;99932.78;4988390;28;20329;-61
2022/09/25 06:23:14;;;;;;;8.73;3.90;;;;;;;23.10;32.84;99927.84;4991759;28;20205;-63
2022/09/25 06:25:43;;;;;;;4.23;3.80;;;;;;;22.66;32.94;99921.16;4991788;28;20261;-73
2022/09/25 06:28:11;;;;;;;4.77;4.20;;;;;;;22.08;34.56;99928.63;4989293;28;20196;-75
2022/09/25 06:30:38;;;;;;;3.97;3.57;;;;;;;21.60;35.32;99916.03;4994365;28;20293;-73
2022/09/25 06:33:08;;;;;;;5.33;3.33;;;;;;;21.48;36.11;99912.69;4995954;28;20729;-73
2022/09/25 06:35:35;;;;;;;6.70;3.93;;;;;;;21.48;36.15;99907.28;4996350;28;20621;-72
2022/09/25 06:38:04;;;;;;;4.50;3.60;;;;;;;21.38;36.28;99911.78;4975500;28;20203;-73
2022/09/25 06:40:32;;;;;;;3.80;3.50;;;;;;;21.57;35.61;99910.34;4975023;28;20227;-70
2022/09/25 06:43:02;;;;;;;3.93;3.70;;;;;;;21.91;35.76;99906.31;4975947;28;20254;-73
2022/09/25 06:45:32;;;;;;;3.53;3.33;;;;;;;22.00;35.30;99911.00;4975958;28;20199;-73
2022/09/25 06:48:03;;;;;;;3.87;3.53;;;;;;;21.99;35.11;99909.38;4974153;28;20199;-73
2022/09/25 06:50:36;;;;;;;4.63;3.53;;;;;;;22.19;34.63;99912.22;4976301;28;20191;-74
2022/09/25 06:53:02;;;;;;;4.20;3.90;;;;;;;22.25;35.36;99913.88;4974998;28;20239;-73
2022/09/25 06:55:31;;;;;;;4.47;4.17;;;;;;;22.02;34.83;99916.97;4976472;28;20195;-73
2022/09/25 06:57:58;;;;;;;4.03;3.83;;;;;;;21.88;35.04;99907.66;4976338;28;20230;-73
2022/09/25 07:00:26;;;;;;;6.17;4.30;;;;;;;22.05;35.71;99905.59;4976520;28;20451;-73
2022/09/25 07:05:37;;;;;;;5.23;3.77;;;;;;;22.44;33.85;99901.53;4975929;28;20265;-73
2022/09/25 07:08:04;;;;;;;4.17;3.87;;;;;;;22.75;33.44;99903.31;4975780;28;20195;-72
2022/09/25 07:10:30;;;;;;;4.00;3.80;;;;;;;22.81;33.58;99907.69;4975801;28;20203;-72
2022/09/25 07:12:57;;;;;;;4.47;4.03;;;;;;;22.54;33.88;99912.44;4975585;28;20200;-72
2022/09/25 07:15:25;;;;;;;4.53;4.23;;;;;;;22.42;34.34;99895.56;4975546;28;20311;-74
2022/09/25 07:17:52;;;;;;;4.30;3.97;;;;;;;22.39;34.61;99906.94;4975881;28;20216;-74
2022/09/25 07:20:20;;;;;;;5.17;4.10;;;;;;;22.10;35.08;99911.06;4976886;28;20222;-73
2022/09/25 07:22:47;;;;;;;3.83;3.53;;;;;;;22.41;33.67;99912.09;4975537;28;20203;-73
2022/09/25 07:25:14;;;;;;;4.40;4.10;;;;;;;22.61;33.46;99913.03;4976113;28;20254;-73
2022/09/25 07:27:40;;;;;;;4.10;3.80;;;;;;;22.99;32.81;99923.47;4976592;28;20195;-73
2022/09/25 07:30:09;;;;;;;3.97;3.73;;;;;;;22.89;33.26;99915.31;4975447;28;20675;-73
2022/09/25 07:32:37;;;;;;;4.33;3.87;;;;;;;22.67;32.87;99916.56;4975398;28;20200;-73
2022/09/25 07:35:04;;;;;;;4.57;3.33;;;;;;;22.83;32.75;99916.34;4975162;28;20246;-73
2022/09/25 07:37:31;;;;;;;4.27;3.83;;;;;;;23.03;32.82;99915.63;4975369;28;20629;-73
2022/09/25 07:39:58;;;;;;;3.60;3.30;;;;;;;23.28;32.32;99924.66;4975130;28;20196;-72
2022/09/25 07:42:24;;;;;;;4.20;4.00;;;;;;;23.60;31.57;99917.13;4975404;28;20655;-73
2022/09/25 07:44:51;;;;;;;4.17;3.83;;;;;;;23.90;31.19;99919.84;4975797;28;20193;-74
2022/09/25 07:47:18;;;;;;;4.10;3.80;;;;;;;24.20;30.74;99919.03;4975185;28;20200;-73
2022/09/25 07:49:46;;;;;;;4.00;3.70;;;;;;;24.36;30.04;99905.16;4975908;28;20256;-73
2022/09/25 07:52:13;;;;;;;3.70;3.50;;;;;;;24.62;30.22;99898.56;4975181;28;20233;-73
2022/09/25 07:54:41;;;;;;;3.80;3.60;;;;;;;24.92;29.76;99898.44;4975167;28;20292;-73
2022/09/25 07:57:07;;;;;;;4.17;3.97;;;;;;;25.23;29.04;99892.84;4975293;28;20210;-73
2022/09/25 07:59:34;;;;;;;4.07;3.77;;;;;;;25.49;28.66;99891.59;4974993;28;20199;-73
2022/09/25 08:02:01;;;;;;;3.70;3.50;;;;;;;25.59;28.39;99892.31;4975139;28;20223;-73
2022/09/25 08:04:28;;;;;;;3.70;3.50;;;;;;;25.76;28.00;99895.44;4974866;28;20246;-73
2022/09/25 08:06:58;;;;;;;5.23;4.93;;;;;;;25.87;27.96;99890.72;4974841;28;20750;-73
2022/09/25 08:09:25;;;;;;;4.60;4.17;;;;;;;25.51;28.57;99879.31;4975066;28;20196;-74
2022/09/25 08:11:51;;;;;;;3.73;3.47;;;;;;;25.58;28.88;99870.84;4974705;28;20203;-73
2022/09/25 08:14:18;;;;;;;4.50;3.93;;;;;;;25.56;28.27;99870.31;4975064;28;20253;-73
2022/09/25 08:16:46;;;;;;;4.57;4.27;;;;;;;25.57;28.43;99871.94;4974635;28;20663;-74
2022/09/25 08:19:16;;;;;;;4.20;3.90;;;;;;;25.26;28.78;99878.66;4975202;28;20215;-73
2022/09/25 08:21:43;;;;;;;4.50;4.17;;;;;;;25.24;28.64;99859.09;4975854;28;20219;-74
2022/09/25 08:24:11;;;;;;;3.83;3.53;;;;;;;25.18;28.60;99871.13;4975369;28;20199;-73
2022/09/25 08:26:38;;;;;;;3.93;3.73;;;;;;;25.42;28.24;99882.94;4975000;28;20278;-73
2022/09/25 08:29:05;;;;;;;4.43;4.03;;;;;;;25.66;27.75;99875.66;4975009;28;20196;-73
2022/09/25 08:31:33;;;;;;;3.97;3.57;;;;;;;25.78;28.04;99876.94;4974324;28;20675;-74
2022/09/25 08:34:00;;;;;;;4.60;4.10;;;;;;;25.83;28.54;99876.06;4974828;28;20192;-74
2022/09/25 08:36:27;;;;;;;4.83;4.30;;;;;;;25.65;28.50;99858.53;4975062;28;20281;-73
2022/09/25 08:38:57;;;;;;;4.73;4.27;;;;;;;25.37;29.12;99861.22;4975117;28;20250;-74
2022/09/25 08:41:29;;;;;;;5.57;4.60;;;;;;;25.51;28.43;99854.84;4974088;28;20734;-74
2022/09/25 08:44:03;;;;;;;5.30;3.90;;;;;;;25.78;28.56;99857.88;4974224;28;20187;-73
2022/09/25 08:49:26;;;;;;;4.23;3.80;;;;;;;26.17;26.62;99833.28;4974071;28;20319;-73
2022/09/25 08:51:59;;;;;;;3.40;3.20;;;;;;;26.38;27.37;99851.03;4973271;28;20223;-72
2022/09/25 08:54:28;;;;;;;6.13;3.80;;;;;;;26.65;27.13;99853.97;4973805;28;20219;-72
2022/09/25 08:56:59;;;;;;;3.17;2.97;;;;;;;26.69;26.34;99857.75;4974442;28;20254;-72
2022/09/25 08:59:31;;;;;;;3.50;3.30;;;;;;;26.80;26.03;99840.97;4974867;28;20184;-73
2022/09/25 09:02:00;;;;;;;4.70;2.97;;;;;;;26.98;26.35;99829.25;4974373;28;20643;-72
2022/09/25 09:04:31;;;;;;;3.60;3.40;;;;;;;26.72;26.52;99835.34;4973814;28;20192;-73
2022/09/25 09:07:04;;;;;;;4.13;3.20;;;;;;;26.67;26.75;99838.16;4974116;28;20209;-73
2022/09/25 09:09:36;;;;;;;4.00;3.43;;;;;;;26.70;26.17;99835.66;4973765;28;20667;-73
2022/09/25 09:12:10;;;;;;;3.50;3.20;;;;;;;26.83;25.77;99837.66;4974349;28;20636;-73
2022/09/25 09:14:43;;;;;;;3.87;3.57;;;;;;;27.04;25.57;99839.00;4974469;28;20250;-74
2022/09/25 09:17:17;;;;;;;3.17;2.97;;;;;;;26.91;26.50;99836.19;4973569;28;20655;-74
2022/09/25 09:19:48;;;;;;;4.77;3.07;;;;;;;27.02;25.92;99835.75;4975077;28;20618;-74
2022/09/25 09:22:19;;;;;;;3.53;3.10;;;;;;;26.98;25.78;99831.97;4973332;28;20653;-74
2022/09/25 09:24:55;;;;;;;3.87;3.30;;;;;;;26.66;25.99;99826.44;4974490;28;20611;-74
2022/09/25 09:27:42;;;;;;;4.87;3.20;;;;;;;26.38;26.71;99827.28;4973509;28;20191;-74
2022/09/25 09:30:17;;;;;;;3.10;2.90;;;;;;;26.44;26.47;99817.16;4974311;28;20290;-74
2022/09/25 09:33:08;;;;;;;3.43;3.13;;;;;;;26.56;26.33;99804.75;4973688;28;20566;-74
2022/09/25 09:35:42;;;;;;;3.17;2.97;;;;;;;26.62;25.89;99794.63;4973658;28;20203;-74
2022/09/25 09:38:19;;;;;;;4.53;3.27;;;;;;;26.67;26.23;99795.38;4973515;28;20643;-74
2022/09/25 09:41:12;;;;;;;2.80;2.30;;;;;;;26.93;26.02;99784.88;4973830;28;20242;-74
2022/09/25 09:43:54;;;;;;;3.30;3.10;;;;;;;26.90;25.68;99780.03;4973241;28;20722;-74
2022/09/25 09:46:28;;;;;;;2.97;2.77;;;;;;;26.78;26.21;99768.78;4973857;28;20262;-73
2022/09/25 09:49:08;;;;;;;3.40;3.10;;;;;;;26.67;26.62;99773.56;4973258;28;20659;-73
2022/09/25 09:51:40;;;;;;;3.83;2.83;;;;;;;26.79;26.31;99767.66;4972813;28;20196;-73
2022/09/25 09:54:13;;;;;;;2.97;2.73;;;;;;;27.00;25.90;99764.34;4974316;28;20532;-73
2022/09/25 09:56:43;;;;;;;3.17;2.97;;;;;;;26.79;26.56;99782.09;4973901;28;20199;-74
2022/09/25 09:59:17;;;;;;;4.17;2.93;;;;;;;26.90;26.20;99771.88;4973509;28;20194;-74
2022/09/25 10:01:49;;;;;;;3.03;2.67;;;;;;;27.03;26.66;99765.66;4973525;28;20305;-74
2022/09/25 10:04:19;;;;;;;2.97;2.87;;;;;;;26.95;26.42;99769.84;4973724;28;20191;-72
2022/09/25 10:06:51;;;;;;;4.13;2.67;;;;;;;27.04;26.48;99761.81;4973603;28;20199;-73
2022/09/25 10:09:18;;;;;;;2.67;2.47;;;;;;;27.07;26.05;99751.13;4972942;28;20211;-72
2022/09/25 10:11:47;;;;;;;3.23;3.13;;;;;;;26.93;26.51;99760.34;4972784;28;20270;-72
2022/09/25 10:14:20;;;;;;;3.00;2.70;;;;;;;26.86;25.94;99765.38;4973213;28;20202;-73
2022/09/25 10:16:48;;;;;;;4.10;2.80;;;;;;;26.99;26.12;99764.63;4972851;28;20240;-72
2022/09/25 10:19:19;;;;;;;2.20;2.10;;;;;;;27.09;26.07;99765.28;4973501;28;20203;-73
2022/09/25 10:21:49;;;;;;;3.83;2.90;;;;;;;27.08;25.96;99757.38;4973865;28;20874;-73
2022/09/25 10:24:50;;;;;;;3.23;2.93;;;;;;;27.25;26.46;99741.31;4973937;28;20242;-73
2022/09/25 10:27:25;;;;;;;2.80;2.60;;;;;;;27.18;25.71;99721.75;4972738;28;20607;-73
2022/09/25 10:30:04;;;;;;;5.87;2.80;;;;;;;27.13;25.99;99736.31;4973133;28;20194;-72
2022/09/25 10:32:33;;;;;;;6.53;3.03;;;;;;;27.21;25.77;99734.81;4973388;28;20199;-72
2022/09/25 10:35:01;;;;;;;3.87;2.80;;;;;;;26.80;25.96;99729.19;4973127;28;20199;-73
2022/09/25 10:37:34;;;;;;;3.07;2.90;;;;;;;26.51;26.83;99735.88;4972940;28;20191;-73
2022/09/25 10:40:04;;;;;;;3.37;3.27;;;;;;;26.73;26.36;99734.19;4973643;28;20274;-74
2022/09/25 10:42:37;;;;;;;4.03;3.20;;;;;;;26.76;26.65;99727.34;4972492;28;20281;-74
2022/09/25 10:45:29;;;;;;;3.30;3.00;;;;;;;26.88;26.33;99722.25;4973801;28;20195;-74
2022/09/25 10:50:41;;;;;;;3.03;2.83;;;;;;;26.95;26.40;99709.06;4973251;28;20664;-75
2022/09/25 10:53:27;;;;;;;2.97;2.70;;;;;;;27.04;25.98;99710.81;4972518;28;20726;-74
2022/09/25 10:56:01;;;;;;;2.87;2.77;;;;;;;27.17;26.25;99714.69;4973646;28;20194;-74
2022/09/25 10:58:34;;;;;;;3.20;2.90;;;;;;;27.01;26.31;99705.94;4972847;28;20198;-75
2022/09/25 11:01:04;;;;;;;2.50;2.40;;;;;;;27.01;26.61;99696.94;4973111;28;20180;-75
2022/09/25 11:03:34;;;;;;;3.70;2.90;;;;;;;26.76;26.79;99702.81;4972606;28;20608;-75
2022/09/25 11:06:05;;;;;;;3.20;3.00;;;;;;;26.22;27.60;99694.31;4972784;28;20227;-76
2022/09/25 11:08:36;;;;;;;2.60;2.50;;;;;;;26.02;27.85;99700.84;4972447;28;20184;-74
2022/09/25 11:11:04;;;;;;;2.73;2.63;;;;;;;26.40;27.36;99685.34;4973452;28;20187;-73
2022/09/25 11:13:37;;;;;;;3.67;2.90;;;;;;;26.68;27.03;99677.03;4972644;28;20638;-73
2022/09/25 11:16:09;;;;;;;2.63;2.43;;;;;;;26.87;26.72;99680.53;4975548;28;20710;-73
2022/09/25 11:18:41;;;;;;;2.90;2.70;;;;;;;26.91;26.59;99672.59;4976442;28;20254;-73
2022/09/25 11:21:21;;;;;;;3.30;2.50;;;;;;;26.93;26.47;99678.53;4977484;28;20250;-74
2022/09/25 11:24:04;;;;;;;2.70;2.50;;;;;;;26.72;26.68;99674.53;4976183;28;20250;-74
2022/09/25 11:26:34;;;;;;;3.37;3.10;;;;;;;26.68;26.44;99668.88;4975931;28;20187;-74
2022/09/25 11:29:10;;;;;;;3.50;2.50;;;;;;;26.74;26.29;99675.84;4987307;28;20612;-74
2022/09/25 11:31:42;;;;;;;4.37;2.87;;;;;;;26.81;26.26;99667.28;4996373;28;20202;-74
2022/09/25 11:34:19;;;;;;;2.10;2.00;;;;;;;26.93;25.52;99670.34;4995314;28;20245;-74
2022/09/25 11:36:49;;;;;;;2.53;2.37;;;;;;;26.88;26.07;99663.09;4995828;28;20262;-75
2022/09/25 11:42:13;;;;;;;4.30;3.90;;;;;;;26.73;26.48;99651.59;4995401;28;20213;-73
2022/09/25 11:44:49;;;;;;;3.30;3.10;;;;;;;26.71;26.15;99648.38;4995169;28;20648;-72
2022/09/25 11:47:24;;;;;;;3.73;2.93;;;;;;;26.76;26.34;99651.03;4995457;28;20271;-73
2022/09/25 11:49:53;;;;;;;3.40;3.30;;;;;;;26.81;26.19;99645.47;4995178;28;20194;-74
2022/09/25 11:52:29;;;;;;;3.53;3.33;;;;;;;26.92;25.83;99638.75;4994988;28;20231;-73
2022/09/25 11:55:14;;;;;;;3.87;3.57;;;;;;;26.92;26.05;99636.03;4995100;28;20237;-74
2022/09/25 11:57:54;;;;;;;3.57;3.37;;;;;;;26.85;26.56;99638.31;4995851;28;20270;-73
2022/09/25 12:00:25;;;;;;;3.23;3.03;;;;;;;26.91;26.68;99624.28;4995757;28;20182;-73
2022/09/25 12:03:12;;;;;;;3.50;3.30;;;;;;;26.89;26.76;99618.34;4995427;28;20215;-71
2022/09/25 12:06:13;;;;;;;3.90;3.50;;;;;;;26.85;26.69;99620.06;4994979;28;20191;-73
2022/09/25 12:08:56;;;;;;;3.70;3.40;;;;;;;26.93;26.35;99616.63;4987345;28;20198;-73
2022/09/25 12:11:29;;;;;;;3.53;3.33;;;;;;;26.99;26.27;99617.38;4995302;28;20189;-73